EDDF

Frankfurt am Main International Airport

Frankfurt-am-Main, Germany
TAF EDDF 192300Z 2000/2106 VRB03KT CAVOK BECMG 2007/2010 22008KT BECMG 2017/2020 VRB03KT
Issued Valid From Valid To
Sep-19 @ 23:00 UTC
(2 hours ago)
Sep-20 @ 00:00 UTC
(42 minutes ago)
Sep-21 @ 06:00 UTC
(-1 days ago)
Sep-20 @ 00:00 to Sep-20 @ 07:00
TAF EDDF 192300Z 2000/2106 VRB03KT CAVOK
Wind Visibility Clouds Conditions
Variable at 3 knots 10,000+ meters
  • No significant clouds
Becoming Sep-20 @ 07:00 to Sep-20 @ 17:00
BECMG 2007/2010 22008KT
Wind Visibility Clouds Conditions
220° at 8 knots 10,000+ meters
  • No significant clouds
Becoming Sep-20 @ 17:00 to Sep-21 @ 06:00
BECMG 2017/2020 VRB03KT
Wind Visibility Clouds Conditions
Variable at 3 knots 10,000+ meters
  • No significant clouds
TAF EDDF 192300Z 2000/2106 VRB03KT CAVOK BECMG 2007/2010 22008KT BECMG 2017/2020 VRB03KT
Issued Sep-19 @ 23:00 UTC
(2 hours ago)
Valid From Sep-20 @ 00:00 UTC
(42 minutes ago)
Valid To Sep-21 @ 06:00 UTC
(-1 days ago)
Sep-20 @ 00:00 - Sep-20 @ 07:00
Wind Visibility
Variable at 3 knots 10,000+ meters
Clouds
  • No significant clouds
Conditions
Becoming Sep-20 @ 07:00 - Sep-20 @ 17:00
Wind Visibility
220° at 8 knots 10,000+ meters
Clouds
  • No significant clouds
Conditions
Becoming Sep-20 @ 17:00 - Sep-21 @ 06:00
Wind Visibility
Variable at 3 knots 10,000+ meters
Clouds
  • No significant clouds
Conditions